sensor_id;sensor_type;location;lat;lon;timestamp;P1;durP1;ratioP1;P2;durP2;ratioP2
1128;SDS011;553;51.038;7.216;2023-05-06T00:01:48;77.33;;;25.47;;
1128;SDS011;553;51.038;7.216;2023-05-06T00:04:15;61.67;;;25.80;;
1128;SDS011;553;51.038;7.216;2023-05-06T00:06:42;52.50;;;25.03;;
1128;SDS011;553;51.038;7.216;2023-05-06T00:09:09;74.13;;;28.20;;
1128;SDS011;553;51.038;7.216;2023-05-06T00:11:36;102.30;;;31.40;;
1128;SDS011;553;51.038;7.216;2023-05-06T00:14:02;49.27;;;24.00;;
1128;SDS011;553;51.038;7.216;2023-05-06T00:16:29;35.50;;;19.53;;
1128;SDS011;553;51.038;7.216;2023-05-06T00:18:56;39.27;;;19.40;;
1128;SDS011;553;51.038;7.216;2023-05-06T00:21:22;39.57;;;16.30;;
1128;SDS011;553;51.038;7.216;2023-05-06T00:23:49;26.40;;;16.73;;
1128;SDS011;553;51.038;7.216;2023-05-06T00:26:16;29.00;;;15.80;;
1128;SDS011;553;51.038;7.216;2023-05-06T00:28:43;29.50;;;14.90;;
1128;SDS011;553;51.038;7.216;2023-05-06T00:31:10;33.10;;;14.93;;
1128;SDS011;553;51.038;7.216;2023-05-06T00:33:36;19.60;;;13.50;;
1128;SDS011;553;51.038;7.216;2023-05-06T00:36:03;28.83;;;15.50;;
1128;SDS011;553;51.038;7.216;2023-05-06T00:38:30;29.17;;;14.07;;
1128;SDS011;553;51.038;7.216;2023-05-06T00:40:56;32.83;;;14.43;;
1128;SDS011;553;51.038;7.216;2023-05-06T00:43:23;23.23;;;13.27;;
1128;SDS011;553;51.038;7.216;2023-05-06T00:45:50;22.33;;;12.03;;
1128;SDS011;553;51.038;7.216;2023-05-06T00:48:17;26.33;;;12.73;;
1128;SDS011;553;51.038;7.216;2023-05-06T00:50:43;44.77;;;13.63;;
1128;SDS011;553;51.038;7.216;2023-05-06T00:53:10;43.00;;;12.00;;
1128;SDS011;553;51.038;7.216;2023-05-06T00:55:37;17.00;;;11.33;;
1128;SDS011;553;51.038;7.216;2023-05-06T00:58:05;46.53;;;13.43;;
1128;SDS011;553;51.038;7.216;2023-05-06T01:00:32;19.37;;;12.60;;
1128;SDS011;553;51.038;7.216;2023-05-06T01:02:59;27.60;;;10.73;;
1128;SDS011;553;51.038;7.216;2023-05-06T01:05:28;20.10;;;11.37;;
1128;SDS011;553;51.038;7.216;2023-05-06T01:08:17;17.80;;;10.77;;
1128;SDS011;553;51.038;7.216;2023-05-06T01:10:52;21.93;;;10.90;;
1128;SDS011;553;51.038;7.216;2023-05-06T01:13:39;14.83;;;11.50;;
1128;SDS011;553;51.038;7.216;2023-05-06T01:16:19;18.20;;;11.13;;
1128;SDS011;553;51.038;7.216;2023-05-06T01:18:48;17.03;;;10.43;;
1128;SDS011;553;51.038;7.216;2023-05-06T01:21:17;17.43;;;10.00;;
1128;SDS011;553;51.038;7.216;2023-05-06T01:23:55;16.70;;;11.97;;
1128;SDS011;553;51.038;7.216;2023-05-06T01:26:23;20.43;;;9.60;;
1128;SDS011;553;51.038;7.216;2023-05-06T01:28:50;16.57;;;9.77;;
1128;SDS011;553;51.038;7.216;2023-05-06T01:31:24;16.57;;;10.60;;
1128;SDS011;553;51.038;7.216;2023-05-06T01:34:01;24.70;;;11.97;;
1128;SDS011;553;51.038;7.216;2023-05-06T01:36:40;15.33;;;9.60;;
1128;SDS011;553;51.038;7.216;2023-05-06T01:39:24;19.60;;;9.43;;
1128;SDS011;553;51.038;7.216;2023-05-06T01:41:52;14.43;;;9.50;;
1128;SDS011;553;51.038;7.216;2023-05-06T01:44:22;35.60;;;10.20;;
1128;SDS011;553;51.038;7.216;2023-05-06T01:46:50;35.17;;;10.10;;
1128;SDS011;553;51.038;7.216;2023-05-06T01:49:18;90.70;;;14.50;;
1128;SDS011;553;51.038;7.216;2023-05-06T01:51:50;103.97;;;15.10;;
1128;SDS011;553;51.038;7.216;2023-05-06T01:54:18;40.43;;;11.30;;
1128;SDS011;553;51.038;7.216;2023-05-06T01:56:45;42.30;;;11.53;;
1128;SDS011;553;51.038;7.216;2023-05-06T01:59:13;35.77;;;11.37;;
1128;SDS011;553;51.038;7.216;2023-05-06T02:01:40;54.80;;;11.07;;
1128;SDS011;553;51.038;7.216;2023-05-06T02:04:07;45.63;;;12.07;;
1128;SDS011;553;51.038;7.216;2023-05-06T02:06:34;61.80;;;11.73;;
1128;SDS011;553;51.038;7.216;2023-05-06T02:09:01;16.63;;;8.97;;
1128;SDS011;553;51.038;7.216;2023-05-06T02:11:29;19.63;;;8.30;;
1128;SDS011;553;51.038;7.216;2023-05-06T02:14:01;28.20;;;10.40;;
1128;SDS011;553;51.038;7.216;2023-05-06T02:16:31;25.50;;;9.63;;
1128;SDS011;553;51.038;7.216;2023-05-06T02:18:57;118.07;;;13.10;;
1128;SDS011;553;51.038;7.216;2023-05-06T02:21:25;84.27;;;14.20;;
1128;SDS011;553;51.038;7.216;2023-05-06T02:23:52;25.47;;;9.87;;
1128;SDS011;553;51.038;7.216;2023-05-06T02:26:19;58.33;;;11.83;;
1128;SDS011;553;51.038;7.216;2023-05-06T02:28:46;57.63;;;13.40;;
1128;SDS011;553;51.038;7.216;2023-05-06T02:31:13;61.83;;;12.20;;
1128;SDS011;553;51.038;7.216;2023-05-06T02:33:41;53.97;;;11.20;;
1128;SDS011;553;51.038;7.216;2023-05-06T02:36:09;67.57;;;13.63;;
1128;SDS011;553;51.038;7.216;2023-05-06T02:38:36;55.67;;;12.97;;
1128;SDS011;553;51.038;7.216;2023-05-06T02:41:02;60.53;;;13.90;;
1128;SDS011;553;51.038;7.216;2023-05-06T02:43:29;49.37;;;12.80;;
1128;SDS011;553;51.038;7.216;2023-05-06T02:45:56;56.03;;;13.80;;
1128;SDS011;553;51.038;7.216;2023-05-06T02:48:24;47.37;;;13.03;;
1128;SDS011;553;51.038;7.216;2023-05-06T02:50:50;28.47;;;12.70;;
1128;SDS011;553;51.038;7.216;2023-05-06T02:53:17;50.13;;;13.10;;
1128;SDS011;553;51.038;7.216;2023-05-06T02:55:44;68.93;;;14.60;;
1128;SDS011;553;51.038;7.216;2023-05-06T02:58:11;23.73;;;10.80;;
1128;SDS011;553;51.038;7.216;2023-05-06T03:00:37;97.80;;;17.13;;
1128;SDS011;553;51.038;7.216;2023-05-06T03:03:04;34.53;;;12.50;;
1128;SDS011;553;51.038;7.216;2023-05-06T03:05:31;23.63;;;11.30;;
1128;SDS011;553;51.038;7.216;2023-05-06T03:07:57;31.50;;;13.07;;
1128;SDS011;553;51.038;7.216;2023-05-06T03:10:24;38.73;;;11.87;;
1128;SDS011;553;51.038;7.216;2023-05-06T03:12:51;42.67;;;15.07;;
1128;SDS011;553;51.038;7.216;2023-05-06T03:15:18;74.10;;;16.57;;
1128;SDS011;553;51.038;7.216;2023-05-06T03:17:45;23.27;;;11.43;;
1128;SDS011;553;51.038;7.216;2023-05-06T03:20:13;20.77;;;10.83;;
1128;SDS011;553;51.038;7.216;2023-05-06T03:22:44;23.83;;;11.60;;
1128;SDS011;553;51.038;7.216;2023-05-06T03:25:11;21.27;;;11.67;;
1128;SDS011;553;51.038;7.216;2023-05-06T03:27:39;42.37;;;13.03;;
1128;SDS011;553;51.038;7.216;2023-05-06T03:30:14;25.37;;;12.40;;
1128;SDS011;553;51.038;7.216;2023-05-06T03:32:42;46.63;;;13.13;;
1128;SDS011;553;51.038;7.216;2023-05-06T03:35:11;40.53;;;14.43;;
1128;SDS011;553;51.038;7.216;2023-05-06T03:37:42;62.53;;;14.23;;
1128;SDS011;553;51.038;7.216;2023-05-06T03:40:08;48.97;;;14.77;;
1128;SDS011;553;51.038;7.216;2023-05-06T03:42:35;50.53;;;13.90;;
1128;SDS011;553;51.038;7.216;2023-05-06T03:45:02;67.50;;;15.83;;
1128;SDS011;553;51.038;7.216;2023-05-06T03:47:31;89.77;;;17.20;;
1128;SDS011;553;51.038;7.216;2023-05-06T03:49:59;116.20;;;18.50;;
1128;SDS011;553;51.038;7.216;2023-05-06T03:52:26;141.80;;;18.37;;
1128;SDS011;553;51.038;7.216;2023-05-06T03:54:53;82.37;;;17.00;;
1128;SDS011;553;51.038;7.216;2023-05-06T03:57:20;85.10;;;16.47;;
1128;SDS011;553;51.038;7.216;2023-05-06T03:59:47;92.87;;;20.30;;
1128;SDS011;553;51.038;7.216;2023-05-06T04:02:14;67.43;;;15.50;;
1128;SDS011;553;51.038;7.216;2023-05-06T04:04:41;42.97;;;14.27;;
1128;SDS011;553;51.038;7.216;2023-05-06T04:07:08;38.63;;;14.57;;
1128;SDS011;553;51.038;7.216;2023-05-06T04:09:35;41.50;;;14.43;;
1128;SDS011;553;51.038;7.216;2023-05-06T04:12:05;32.10;;;13.50;;
1128;SDS011;553;51.038;7.216;2023-05-06T04:14:33;46.30;;;14.83;;
1128;SDS011;553;51.038;7.216;2023-05-06T04:17:00;36.60;;;14.50;;
1128;SDS011;553;51.038;7.216;2023-05-06T04:19:27;90.60;;;15.37;;
1128;SDS011;553;51.038;7.216;2023-05-06T04:21:54;110.53;;;17.23;;
1128;SDS011;553;51.038;7.216;2023-05-06T04:24:20;148.67;;;19.00;;
1128;SDS011;553;51.038;7.216;2023-05-06T04:26:48;69.10;;;16.07;;
1128;SDS011;553;51.038;7.216;2023-05-06T04:29:15;96.47;;;15.53;;
1128;SDS011;553;51.038;7.216;2023-05-06T04:31:52;44.77;;;14.20;;
1128;SDS011;553;51.038;7.216;2023-05-06T04:34:20;38.23;;;14.73;;
1128;SDS011;553;51.038;7.216;2023-05-06T04:36:47;46.20;;;13.63;;
1128;SDS011;553;51.038;7.216;2023-05-06T04:39:21;72.43;;;14.50;;
1128;SDS011;553;51.038;7.216;2023-05-06T04:41:49;101.47;;;16.30;;
1128;SDS011;553;51.038;7.216;2023-05-06T04:44:22;93.57;;;15.10;;
1128;SDS011;553;51.038;7.216;2023-05-06T04:46:50;38.40;;;12.63;;
1128;SDS011;553;51.038;7.216;2023-05-06T04:49:17;102.63;;;16.23;;
1128;SDS011;553;51.038;7.216;2023-05-06T04:51:43;53.07;;;13.77;;
1128;SDS011;553;51.038;7.216;2023-05-06T04:54:10;70.47;;;14.43;;
1128;SDS011;553;51.038;7.216;2023-05-06T04:56:38;52.50;;;13.60;;
1128;SDS011;553;51.038;7.216;2023-05-06T04:59:07;56.10;;;14.17;;
1128;SDS011;553;51.038;7.216;2023-05-06T05:01:33;80.73;;;16.57;;
1128;SDS011;553;51.038;7.216;2023-05-06T05:04:00;60.10;;;13.43;;
1128;SDS011;553;51.038;7.216;2023-05-06T05:06:27;57.40;;;12.80;;
1128;SDS011;553;51.038;7.216;2023-05-06T05:08:54;56.60;;;11.50;;
1128;SDS011;553;51.038;7.216;2023-05-06T05:11:22;64.93;;;12.40;;
1128;SDS011;553;51.038;7.216;2023-05-06T05:13:48;37.63;;;10.90;;
1128;SDS011;553;51.038;7.216;2023-05-06T05:16:16;49.20;;;10.80;;
1128;SDS011;553;51.038;7.216;2023-05-06T05:18:44;31.73;;;10.47;;
1128;SDS011;553;51.038;7.216;2023-05-06T05:21:16;56.87;;;11.80;;
1128;SDS011;553;51.038;7.216;2023-05-06T05:23:43;41.37;;;11.83;;
1128;SDS011;553;51.038;7.216;2023-05-06T05:26:09;41.37;;;11.07;;
1128;SDS011;553;51.038;7.216;2023-05-06T05:28:37;39.03;;;12.70;;
1128;SDS011;553;51.038;7.216;2023-05-06T05:31:04;23.63;;;9.47;;
1128;SDS011;553;51.038;7.216;2023-05-06T05:33:34;38.57;;;11.90;;
1128;SDS011;553;51.038;7.216;2023-05-06T05:36:04;20.80;;;10.20;;
1128;SDS011;553;51.038;7.216;2023-05-06T05:38:32;17.10;;;10.10;;
1128;SDS011;553;51.038;7.216;2023-05-06T05:40:59;26.70;;;9.17;;
1128;SDS011;553;51.038;7.216;2023-05-06T05:43:26;19.50;;;10.27;;
1128;SDS011;553;51.038;7.216;2023-05-06T05:45:54;29.33;;;10.80;;
1128;SDS011;553;51.038;7.216;2023-05-06T05:48:21;28.60;;;8.80;;
1128;SDS011;553;51.038;7.216;2023-05-06T05:50:48;23.90;;;8.80;;
1128;SDS011;553;51.038;7.216;2023-05-06T05:53:15;19.90;;;9.00;;
1128;SDS011;553;51.038;7.216;2023-05-06T05:55:42;13.90;;;9.23;;
1128;SDS011;553;51.038;7.216;2023-05-06T05:58:09;13.63;;;8.90;;
1128;SDS011;553;51.038;7.216;2023-05-06T06:00:40;11.90;;;8.20;;
1128;SDS011;553;51.038;7.216;2023-05-06T06:03:10;11.57;;;8.30;;
1128;SDS011;553;51.038;7.216;2023-05-06T06:05:37;10.97;;;8.13;;
1128;SDS011;553;51.038;7.216;2023-05-06T06:08:05;10.70;;;7.40;;
1128;SDS011;553;51.038;7.216;2023-05-06T06:10:32;9.13;;;7.70;;
1128;SDS011;553;51.038;7.216;2023-05-06T06:13:02;9.63;;;7.50;;
1128;SDS011;553;51.038;7.216;2023-05-06T06:15:31;8.60;;;6.53;;
1128;SDS011;553;51.038;7.216;2023-05-06T06:17:57;7.83;;;5.90;;
1128;SDS011;553;51.038;7.216;2023-05-06T06:20:26;7.57;;;6.03;;
1128;SDS011;553;51.038;7.216;2023-05-06T06:22:53;7.57;;;6.73;;
1128;SDS011;553;51.038;7.216;2023-05-06T06:25:20;8.53;;;6.77;;
1128;SDS011;553;51.038;7.216;2023-05-06T06:27:47;7.90;;;6.40;;
1128;SDS011;553;51.038;7.216;2023-05-06T06:30:14;7.10;;;5.70;;
1128;SDS011;553;51.038;7.216;2023-05-06T06:32:47;8.43;;;6.30;;
1128;SDS011;553;51.038;7.216;2023-05-06T06:35:16;7.60;;;5.97;;
1128;SDS011;553;51.038;7.216;2023-05-06T06:37:44;6.57;;;5.87;;
1128;SDS011;553;51.038;7.216;2023-05-06T06:40:11;7.67;;;5.87;;
1128;SDS011;553;51.038;7.216;2023-05-06T06:42:38;7.30;;;6.30;;
1128;SDS011;553;51.038;7.216;2023-05-06T06:45:17;8.10;;;6.23;;
1128;SDS011;553;51.038;7.216;2023-05-06T06:47:44;6.40;;;5.70;;
1128;SDS011;553;51.038;7.216;2023-05-06T06:50:10;6.73;;;5.80;;
1128;SDS011;553;51.038;7.216;2023-05-06T06:52:37;6.90;;;6.10;;
1128;SDS011;553;51.038;7.216;2023-05-06T06:55:04;8.17;;;6.40;;
1128;SDS011;553;51.038;7.216;2023-05-06T06:57:31;8.30;;;6.97;;
1128;SDS011;553;51.038;7.216;2023-05-06T06:59:58;6.67;;;5.97;;
1128;SDS011;553;51.038;7.216;2023-05-06T07:02:24;7.97;;;5.87;;
1128;SDS011;553;51.038;7.216;2023-05-06T07:04:52;7.30;;;6.50;;
1128;SDS011;553;51.038;7.216;2023-05-06T07:07:18;7.30;;;6.53;;
1128;SDS011;553;51.038;7.216;2023-05-06T07:09:45;6.90;;;6.17;;
1128;SDS011;553;51.038;7.216;2023-05-06T07:12:12;7.93;;;5.87;;
1128;SDS011;553;51.038;7.216;2023-05-06T07:14:39;6.97;;;6.27;;
1128;SDS011;553;51.038;7.216;2023-05-06T07:17:06;7.07;;;5.77;;
1128;SDS011;553;51.038;7.216;2023-05-06T07:19:33;6.00;;;5.37;;
1128;SDS011;553;51.038;7.216;2023-05-06T07:21:59;7.40;;;6.27;;
1128;SDS011;553;51.038;7.216;2023-05-06T07:24:27;6.27;;;5.63;;
1128;SDS011;553;51.038;7.216;2023-05-06T07:26:54;6.80;;;6.13;;
1128;SDS011;553;51.038;7.216;2023-05-06T07:29:21;7.33;;;5.63;;
1128;SDS011;553;51.038;7.216;2023-05-06T07:31:48;5.83;;;5.30;;
1128;SDS011;553;51.038;7.216;2023-05-06T07:34:15;6.67;;;5.47;;
1128;SDS011;553;51.038;7.216;2023-05-06T07:36:41;5.43;;;4.93;;
1128;SDS011;553;51.038;7.216;2023-05-06T07:39:10;6.20;;;5.60;;
1128;SDS011;553;51.038;7.216;2023-05-06T07:41:37;5.27;;;4.50;;
1128;SDS011;553;51.038;7.216;2023-05-06T07:44:04;5.07;;;4.53;;
1128;SDS011;553;51.038;7.216;2023-05-06T07:46:31;6.37;;;4.80;;
1128;SDS011;553;51.038;7.216;2023-05-06T07:48:58;5.63;;;4.20;;
1128;SDS011;553;51.038;7.216;2023-05-06T07:51:25;5.00;;;4.60;;
1128;SDS011;553;51.038;7.216;2023-05-06T07:53:52;4.63;;;4.23;;
1128;SDS011;553;51.038;7.216;2023-05-06T07:56:18;5.23;;;4.00;;
1128;SDS011;553;51.038;7.216;2023-05-06T07:58:45;3.53;;;3.23;;
1128;SDS011;553;51.038;7.216;2023-05-06T08:01:14;7.63;;;3.47;;
1128;SDS011;553;51.038;7.216;2023-05-06T08:03:41;4.27;;;3.73;;
1128;SDS011;553;51.038;7.216;2023-05-06T08:06:08;3.87;;;3.03;;
1128;SDS011;553;51.038;7.216;2023-05-06T08:08:35;3.53;;;2.97;;
1128;SDS011;553;51.038;7.216;2023-05-06T08:11:02;3.43;;;2.87;;
1128;SDS011;553;51.038;7.216;2023-05-06T08:13:29;2.63;;;2.40;;
1128;SDS011;553;51.038;7.216;2023-05-06T08:15:55;2.90;;;2.60;;
1128;SDS011;553;51.038;7.216;2023-05-06T08:18:22;3.37;;;2.20;;
1128;SDS011;553;51.038;7.216;2023-05-06T08:20:49;3.50;;;2.50;;
1128;SDS011;553;51.038;7.216;2023-05-06T08:23:16;3.30;;;2.63;;
1128;SDS011;553;51.038;7.216;2023-05-06T08:25:43;3.10;;;2.57;;
1128;SDS011;553;51.038;7.216;2023-05-06T08:28:09;3.10;;;2.43;;
1128;SDS011;553;51.038;7.216;2023-05-06T08:30:36;3.30;;;2.40;;
1128;SDS011;553;51.038;7.216;2023-05-06T08:33:03;2.27;;;2.07;;
1128;SDS011;553;51.038;7.216;2023-05-06T08:35:29;4.43;;;2.10;;
1128;SDS011;553;51.038;7.216;2023-05-06T08:37:56;4.47;;;2.40;;
1128;SDS011;553;51.038;7.216;2023-05-06T08:40:23;4.23;;;2.20;;
1128;SDS011;553;51.038;7.216;2023-05-06T08:42:52;3.30;;;1.80;;
1128;SDS011;553;51.038;7.216;2023-05-06T08:45:22;2.30;;;1.67;;
1128;SDS011;553;51.038;7.216;2023-05-06T08:47:49;3.40;;;1.83;;
1128;SDS011;553;51.038;7.216;2023-05-06T08:50:16;6.67;;;1.53;;
1128;SDS011;553;51.038;7.216;2023-05-06T08:52:43;2.80;;;1.90;;
1128;SDS011;553;51.038;7.216;2023-05-06T08:55:10;3.27;;;1.90;;
1128;SDS011;553;51.038;7.216;2023-05-06T08:57:38;3.40;;;1.70;;
1128;SDS011;553;51.038;7.216;2023-05-06T09:00:07;2.37;;;1.80;;
1128;SDS011;553;51.038;7.216;2023-05-06T09:02:36;3.57;;;1.90;;
1128;SDS011;553;51.038;7.216;2023-05-06T09:05:08;3.93;;;2.60;;
1128;SDS011;553;51.038;7.216;2023-05-06T09:07:35;2.80;;;1.63;;
1128;SDS011;553;51.038;7.216;2023-05-06T09:10:06;4.33;;;2.30;;
1128;SDS011;553;51.038;7.216;2023-05-06T09:12:37;4.00;;;2.17;;
1128;SDS011;553;51.038;7.216;2023-05-06T09:15:04;2.00;;;1.53;;
1128;SDS011;553;51.038;7.216;2023-05-06T09:17:31;3.97;;;1.93;;
1128;SDS011;553;51.038;7.216;2023-05-06T09:19:58;3.20;;;1.97;;
1128;SDS011;553;51.038;7.216;2023-05-06T09:22:26;3.40;;;2.40;;
1128;SDS011;553;51.038;7.216;2023-05-06T09:24:53;2.97;;;2.00;;
1128;SDS011;553;51.038;7.216;2023-05-06T09:27:27;2.33;;;2.03;;
1128;SDS011;553;51.038;7.216;2023-05-06T09:30:06;2.60;;;1.90;;
1128;SDS011;553;51.038;7.216;2023-05-06T09:32:34;3.10;;;2.13;;
1128;SDS011;553;51.038;7.216;2023-05-06T09:35:05;2.70;;;2.00;;
1128;SDS011;553;51.038;7.216;2023-05-06T09:37:32;2.97;;;2.33;;
1128;SDS011;553;51.038;7.216;2023-05-06T09:39:59;2.20;;;1.70;;
1128;SDS011;553;51.038;7.216;2023-05-06T09:42:27;1.67;;;1.30;;
1128;SDS011;553;51.038;7.216;2023-05-06T09:44:55;3.07;;;0.93;;
1128;SDS011;553;51.038;7.216;2023-05-06T09:47:28;5.20;;;1.90;;
1128;SDS011;553;51.038;7.216;2023-05-06T09:49:59;2.30;;;1.77;;
1128;SDS011;553;51.038;7.216;2023-05-06T09:52:27;3.40;;;2.27;;
1128;SDS011;553;51.038;7.216;2023-05-06T09:54:55;2.50;;;2.00;;
1128;SDS011;553;51.038;7.216;2023-05-06T09:57:23;2.00;;;1.70;;
1128;SDS011;553;51.038;7.216;2023-05-06T09:59:50;2.67;;;1.70;;
1128;SDS011;553;51.038;7.216;2023-05-06T10:02:20;3.30;;;1.73;;
1128;SDS011;553;51.038;7.216;2023-05-06T10:04:49;2.37;;;1.60;;
1128;SDS011;553;51.038;7.216;2023-05-06T10:07:19;2.00;;;1.37;;
1128;SDS011;553;51.038;7.216;2023-05-06T10:09:51;3.13;;;1.80;;
1128;SDS011;553;51.038;7.216;2023-05-06T10:12:19;4.70;;;1.77;;
1128;SDS011;553;51.038;7.216;2023-05-06T10:14:46;2.00;;;1.57;;
1128;SDS011;553;51.038;7.216;2023-05-06T10:17:13;2.13;;;1.63;;
1128;SDS011;553;51.038;7.216;2023-05-06T10:19:42;1.87;;;1.70;;
1128;SDS011;553;51.038;7.216;2023-05-06T10:22:15;4.27;;;1.77;;
1128;SDS011;553;51.038;7.216;2023-05-06T10:24:58;1.87;;;1.30;;
1128;SDS011;553;51.038;7.216;2023-05-06T10:27:32;5.37;;;1.70;;
1128;SDS011;553;51.038;7.216;2023-05-06T10:30:05;2.07;;;1.40;;
1128;SDS011;553;51.038;7.216;2023-05-06T10:32:34;1.40;;;1.23;;
1128;SDS011;553;51.038;7.216;2023-05-06T10:35:15;1.97;;;1.30;;
1128;SDS011;553;51.038;7.216;2023-05-06T10:37:42;3.10;;;1.47;;
1128;SDS011;553;51.038;7.216;2023-05-06T10:40:10;2.07;;;1.10;;
1128;SDS011;553;51.038;7.216;2023-05-06T10:42:38;2.80;;;1.30;;
1128;SDS011;553;51.038;7.216;2023-05-06T10:45:05;2.83;;;1.60;;
1128;SDS011;553;51.038;7.216;2023-05-06T10:50:24;4.00;;;1.70;;
1128;SDS011;553;51.038;7.216;2023-05-06T10:52:56;1.83;;;1.00;;
1128;SDS011;553;51.038;7.216;2023-05-06T10:55:28;1.63;;;1.10;;
1128;SDS011;553;51.038;7.216;2023-05-06T10:58:00;2.53;;;1.20;;
1128;SDS011;553;51.038;7.216;2023-05-06T11:00:32;3.67;;;1.20;;
1128;SDS011;553;51.038;7.216;2023-05-06T11:03:00;2.90;;;1.10;;
1128;SDS011;553;51.038;7.216;2023-05-06T11:05:36;1.43;;;1.00;;
1128;SDS011;553;51.038;7.216;2023-05-06T11:08:13;1.53;;;1.07;;
1128;SDS011;553;51.038;7.216;2023-05-06T11:10:40;1.87;;;1.33;;
1128;SDS011;553;51.038;7.216;2023-05-06T11:13:17;2.40;;;1.27;;
1128;SDS011;553;51.038;7.216;2023-05-06T11:15:46;3.30;;;1.30;;
1128;SDS011;553;51.038;7.216;2023-05-06T11:26:11;1.80;;;1.37;;
1128;SDS011;553;51.038;7.216;2023-05-06T11:28:38;6.33;;;1.60;;
1128;SDS011;553;51.038;7.216;2023-05-06T11:31:08;1.70;;;1.30;;
1128;SDS011;553;51.038;7.216;2023-05-06T11:33:35;2.30;;;1.20;;
1128;SDS011;553;51.038;7.216;2023-05-06T11:36:03;4.07;;;1.10;;
1128;SDS011;553;51.038;7.216;2023-05-06T11:38:40;1.43;;;0.73;;
1128;SDS011;553;51.038;7.216;2023-05-06T11:41:17;1.93;;;0.90;;
1128;SDS011;553;51.038;7.216;2023-05-06T11:43:45;4.63;;;1.40;;
1128;SDS011;553;51.038;7.216;2023-05-06T11:46:12;1.60;;;0.77;;
1128;SDS011;553;51.038;7.216;2023-05-06T11:48:39;2.43;;;0.90;;
1128;SDS011;553;51.038;7.216;2023-05-06T11:51:05;4.43;;;1.33;;
1128;SDS011;553;51.038;7.216;2023-05-06T11:53:33;1.60;;;1.00;;
1128;SDS011;553;51.038;7.216;2023-05-06T11:56:00;5.77;;;1.30;;
1128;SDS011;553;51.038;7.216;2023-05-06T11:58:27;2.87;;;1.27;;
1128;SDS011;553;51.038;7.216;2023-05-06T12:00:55;2.33;;;1.30;;
1128;SDS011;553;51.038;7.216;2023-05-06T12:03:23;2.47;;;0.90;;
1128;SDS011;553;51.038;7.216;2023-05-06T12:05:51;10.20;;;0.93;;
1128;SDS011;553;51.038;7.216;2023-05-06T12:08:28;3.73;;;1.40;;
1128;SDS011;553;51.038;7.216;2023-05-06T12:11:01;1.40;;;0.93;;
1128;SDS011;553;51.038;7.216;2023-05-06T12:13:30;2.77;;;1.10;;
1128;SDS011;553;51.038;7.216;2023-05-06T12:15:58;3.90;;;0.90;;
1128;SDS011;553;51.038;7.216;2023-05-06T12:18:25;2.53;;;1.13;;
1128;SDS011;553;51.038;7.216;2023-05-06T12:20:52;2.33;;;1.30;;
1128;SDS011;553;51.038;7.216;2023-05-06T12:23:26;2.53;;;1.10;;
1128;SDS011;553;51.038;7.216;2023-05-06T12:25:59;1.90;;;1.10;;
1128;SDS011;553;51.038;7.216;2023-05-06T12:28:30;1.87;;;1.00;;
1128;SDS011;553;51.038;7.216;2023-05-06T12:30:59;1.80;;;1.20;;
1128;SDS011;553;51.038;7.216;2023-05-06T12:33:26;2.90;;;1.03;;
1128;SDS011;553;51.038;7.216;2023-05-06T12:35:53;1.97;;;1.03;;
1128;SDS011;553;51.038;7.216;2023-05-06T12:38:31;1.27;;;0.70;;
1128;SDS011;553;51.038;7.216;2023-05-06T12:40:58;2.80;;;1.43;;
1128;SDS011;553;51.038;7.216;2023-05-06T12:43:28;2.70;;;1.03;;
1128;SDS011;553;51.038;7.216;2023-05-06T12:46:05;2.40;;;1.13;;
1128;SDS011;553;51.038;7.216;2023-05-06T12:48:34;1.00;;;0.90;;
1128;SDS011;553;51.038;7.216;2023-05-06T12:51:15;1.30;;;0.90;;
1128;SDS011;553;51.038;7.216;2023-05-06T12:53:44;5.90;;;2.10;;
1128;SDS011;553;51.038;7.216;2023-05-06T12:56:10;2.40;;;0.90;;
1128;SDS011;553;51.038;7.216;2023-05-06T12:58:37;2.33;;;1.00;;
1128;SDS011;553;51.038;7.216;2023-05-06T13:01:04;2.13;;;0.70;;
1128;SDS011;553;51.038;7.216;2023-05-06T13:03:33;1.93;;;0.93;;
1128;SDS011;553;51.038;7.216;2023-05-06T13:06:03;1.37;;;0.90;;
1128;SDS011;553;51.038;7.216;2023-05-06T13:08:30;1.77;;;0.70;;
1128;SDS011;553;51.038;7.216;2023-05-06T13:10:57;1.97;;;0.90;;
1128;SDS011;553;51.038;7.216;2023-05-06T13:13:26;2.10;;;0.87;;
1128;SDS011;553;51.038;7.216;2023-05-06T13:15:53;3.30;;;0.73;;
1128;SDS011;553;51.038;7.216;2023-05-06T13:18:20;4.40;;;1.33;;
1128;SDS011;553;51.038;7.216;2023-05-06T13:20:47;2.40;;;1.20;;
1128;SDS011;553;51.038;7.216;2023-05-06T13:23:14;1.23;;;0.80;;
1128;SDS011;553;51.038;7.216;2023-05-06T13:25:40;2.73;;;1.20;;
1128;SDS011;553;51.038;7.216;2023-05-06T13:28:27;1.83;;;0.93;;
1128;SDS011;553;51.038;7.216;2023-05-06T13:30:54;3.07;;;1.37;;
1128;SDS011;553;51.038;7.216;2023-05-06T13:33:20;3.70;;;0.97;;
1128;SDS011;553;51.038;7.216;2023-05-06T13:35:47;1.03;;;0.90;;
1128;SDS011;553;51.038;7.216;2023-05-06T13:38:13;2.73;;;0.93;;
1128;SDS011;553;51.038;7.216;2023-05-06T13:40:40;1.90;;;1.00;;
1128;SDS011;553;51.038;7.216;2023-05-06T13:43:07;1.53;;;0.83;;
1128;SDS011;553;51.038;7.216;2023-05-06T13:45:34;2.17;;;1.20;;
1128;SDS011;553;51.038;7.216;2023-05-06T13:48:00;1.90;;;1.13;;
1128;SDS011;553;51.038;7.216;2023-05-06T13:50:27;1.67;;;0.80;;
1128;SDS011;553;51.038;7.216;2023-05-06T13:52:54;2.50;;;0.90;;
1128;SDS011;553;51.038;7.216;2023-05-06T13:55:20;2.83;;;0.80;;
1128;SDS011;553;51.038;7.216;2023-05-06T13:57:47;3.63;;;0.97;;
1128;SDS011;553;51.038;7.216;2023-05-06T14:00:14;3.80;;;0.90;;
1128;SDS011;553;51.038;7.216;2023-05-06T14:02:41;1.80;;;0.80;;
1128;SDS011;553;51.038;7.216;2023-05-06T14:05:07;2.07;;;1.00;;
1128;SDS011;553;51.038;7.216;2023-05-06T14:07:36;2.23;;;0.97;;
1128;SDS011;553;51.038;7.216;2023-05-06T14:10:05;1.83;;;1.00;;
1128;SDS011;553;51.038;7.216;2023-05-06T14:12:33;2.00;;;0.90;;
1128;SDS011;553;51.038;7.216;2023-05-06T14:14:59;3.47;;;1.90;;
1128;SDS011;553;51.038;7.216;2023-05-06T14:17:26;2.03;;;1.10;;
1128;SDS011;553;51.038;7.216;2023-05-06T14:19:53;1.50;;;1.00;;
1128;SDS011;553;51.038;7.216;2023-05-06T14:22:19;3.17;;;1.10;;
1128;SDS011;553;51.038;7.216;2023-05-06T14:24:46;2.60;;;1.10;;
1128;SDS011;553;51.038;7.216;2023-05-06T14:27:13;2.43;;;1.00;;
1128;SDS011;553;51.038;7.216;2023-05-06T14:29:40;3.30;;;1.90;;
1128;SDS011;553;51.038;7.216;2023-05-06T14:32:11;1.33;;;0.77;;
1128;SDS011;553;51.038;7.216;2023-05-06T14:34:38;2.43;;;0.87;;
1128;SDS011;553;51.038;7.216;2023-05-06T14:37:05;2.20;;;1.03;;
1128;SDS011;553;51.038;7.216;2023-05-06T14:39:31;3.67;;;1.67;;
1128;SDS011;553;51.038;7.216;2023-05-06T14:41:58;2.03;;;1.30;;
1128;SDS011;553;51.038;7.216;2023-05-06T14:44:25;1.60;;;1.00;;
1128;SDS011;553;51.038;7.216;2023-05-06T14:46:52;3.67;;;1.67;;
1128;SDS011;553;51.038;7.216;2023-05-06T14:49:18;4.87;;;1.30;;
1128;SDS011;553;51.038;7.216;2023-05-06T14:51:46;2.27;;;1.40;;
1128;SDS011;553;51.038;7.216;2023-05-06T14:54:15;1.57;;;1.30;;
1128;SDS011;553;51.038;7.216;2023-05-06T14:56:42;3.87;;;1.30;;
1128;SDS011;553;51.038;7.216;2023-05-06T14:59:14;5.47;;;2.23;;
1128;SDS011;553;51.038;7.216;2023-05-06T15:01:43;5.30;;;1.87;;
1128;SDS011;553;51.038;7.216;2023-05-06T15:04:09;4.70;;;1.50;;
1128;SDS011;553;51.038;7.216;2023-05-06T15:06:36;3.67;;;1.53;;
1128;SDS011;553;51.038;7.216;2023-05-06T15:09:03;2.83;;;1.43;;
1128;SDS011;553;51.038;7.216;2023-05-06T15:11:30;6.57;;;1.73;;
1128;SDS011;553;51.038;7.216;2023-05-06T15:13:57;5.77;;;2.10;;
1128;SDS011;553;51.038;7.216;2023-05-06T15:16:24;2.93;;;1.90;;
1128;SDS011;553;51.038;7.216;2023-05-06T15:18:50;2.63;;;2.30;;
1128;SDS011;553;51.038;7.216;2023-05-06T15:21:17;3.80;;;2.03;;
1128;SDS011;553;51.038;7.216;2023-05-06T15:23:45;6.20;;;2.20;;
1128;SDS011;553;51.038;7.216;2023-05-06T15:26:12;3.30;;;2.00;;
1128;SDS011;553;51.038;7.216;2023-05-06T15:28:39;3.50;;;2.13;;
1128;SDS011;553;51.038;7.216;2023-05-06T15:31:06;5.90;;;2.20;;
1128;SDS011;553;51.038;7.216;2023-05-06T15:33:33;3.53;;;2.20;;
1128;SDS011;553;51.038;7.216;2023-05-06T15:36:02;4.37;;;2.40;;
1128;SDS011;553;51.038;7.216;2023-05-06T15:38:33;2.53;;;2.10;;